sensor_id;sensor_type;location;lat;lon;timestamp;temperature;humidity
15115;DHT22;7658;51.456;7.622;2023-02-08T00:01:25;-2.60;99.90
15115;DHT22;7658;51.456;7.622;2023-02-08T00:03:51;-2.60;99.90
15115;DHT22;7658;51.456;7.622;2023-02-08T00:06:17;-2.60;99.90
15115;DHT22;7658;51.456;7.622;2023-02-08T00:08:44;-2.60;99.90
15115;DHT22;7658;51.456;7.622;2023-02-08T00:11:10;-2.60;99.90
15115;DHT22;7658;51.456;7.622;2023-02-08T00:13:37;-2.60;99.90
15115;DHT22;7658;51.456;7.622;2023-02-08T00:16:04;-2.60;99.90
15115;DHT22;7658;51.456;7.622;2023-02-08T00:18:30;-2.60;99.90
15115;DHT22;7658;51.456;7.622;2023-02-08T00:20:56;-2.60;99.90
15115;DHT22;7658;51.456;7.622;2023-02-08T00:23:23;-2.60;99.90
15115;DHT22;7658;51.456;7.622;2023-02-08T00:25:49;-2.60;99.90
15115;DHT22;7658;51.456;7.622;2023-02-08T00:28:16;-2.60;99.90
15115;DHT22;7658;51.456;7.622;2023-02-08T00:30:42;-2.70;99.90
15115;DHT22;7658;51.456;7.622;2023-02-08T00:33:08;-2.60;99.90
15115;DHT22;7658;51.456;7.622;2023-02-08T00:35:34;-2.60;99.90
15115;DHT22;7658;51.456;7.622;2023-02-08T00:38:00;-2.70;99.90
15115;DHT22;7658;51.456;7.622;2023-02-08T00:40:26;-2.70;99.90
15115;DHT22;7658;51.456;7.622;2023-02-08T00:42:52;-2.90;99.90
15115;DHT22;7658;51.456;7.622;2023-02-08T00:45:18;-3.00;99.90
15115;DHT22;7658;51.456;7.622;2023-02-08T00:47:44;-3.00;99.90
15115;DHT22;7658;51.456;7.622;2023-02-08T00:50:10;-3.00;99.90
15115;DHT22;7658;51.456;7.622;2023-02-08T00:52:36;-3.00;99.90
15115;DHT22;7658;51.456;7.622;2023-02-08T00:55:03;-3.00;99.90
15115;DHT22;7658;51.456;7.622;2023-02-08T00:57:31;-3.00;99.90
15115;DHT22;7658;51.456;7.622;2023-02-08T00:59:57;-3.00;99.90
15115;DHT22;7658;51.456;7.622;2023-02-08T01:02:23;-3.10;99.90
15115;DHT22;7658;51.456;7.622;2023-02-08T01:04:49;-3.10;99.90
15115;DHT22;7658;51.456;7.622;2023-02-08T01:07:15;-3.10;99.90
15115;DHT22;7658;51.456;7.622;2023-02-08T01:09:40;-3.10;99.90
15115;DHT22;7658;51.456;7.622;2023-02-08T01:12:06;-3.10;99.90
15115;DHT22;7658;51.456;7.622;2023-02-08T01:14:32;-3.10;99.90
15115;DHT22;7658;51.456;7.622;2023-02-08T01:16:58;-3.10;99.90
15115;DHT22;7658;51.456;7.622;2023-02-08T01:19:24;-3.10;99.90
15115;DHT22;7658;51.456;7.622;2023-02-08T01:21:49;-3.20;99.90
15115;DHT22;7658;51.456;7.622;2023-02-08T01:24:15;-3.30;99.90
15115;DHT22;7658;51.456;7.622;2023-02-08T01:26:41;-3.30;99.90
15115;DHT22;7658;51.456;7.622;2023-02-08T01:29:07;-3.20;99.90
15115;DHT22;7658;51.456;7.622;2023-02-08T01:31:36;-3.20;99.90
15115;DHT22;7658;51.456;7.622;2023-02-08T01:34:03;-3.10;99.90
15115;DHT22;7658;51.456;7.622;2023-02-08T01:36:30;-3.20;99.90
15115;DHT22;7658;51.456;7.622;2023-02-08T01:38:56;-3.20;99.90
15115;DHT22;7658;51.456;7.622;2023-02-08T01:41:25;-3.20;99.90
15115;DHT22;7658;51.456;7.622;2023-02-08T01:46:37;-3.10;99.90
15115;DHT22;7658;51.456;7.622;2023-02-08T01:51:44;-3.20;99.90
15115;DHT22;7658;51.456;7.622;2023-02-08T01:54:12;-3.20;99.90
15115;DHT22;7658;51.456;7.622;2023-02-08T01:56:42;-3.10;99.90
15115;DHT22;7658;51.456;7.622;2023-02-08T01:59:16;-3.20;99.90
15115;DHT22;7658;51.456;7.622;2023-02-08T02:01:44;-3.20;99.90
15115;DHT22;7658;51.456;7.622;2023-02-08T02:04:11;-3.20;99.90
15115;DHT22;7658;51.456;7.622;2023-02-08T02:06:41;-3.20;99.90
15115;DHT22;7658;51.456;7.622;2023-02-08T02:09:25;-3.30;99.90
15115;DHT22;7658;51.456;7.622;2023-02-08T02:11:53;-3.40;99.90
15115;DHT22;7658;51.456;7.622;2023-02-08T02:14:19;-3.40;99.90
15115;DHT22;7658;51.456;7.622;2023-02-08T02:16:45;-3.30;99.90
15115;DHT22;7658;51.456;7.622;2023-02-08T02:19:37;-3.30;99.90
15115;DHT22;7658;51.456;7.622;2023-02-08T02:22:13;-3.20;99.90
15115;DHT22;7658;51.456;7.622;2023-02-08T02:25:08;-3.20;99.90
15115;DHT22;7658;51.456;7.622;2023-02-08T02:30:50;-3.30;99.90
15115;DHT22;7658;51.456;7.622;2023-02-08T02:33:34;-3.50;99.90
15115;DHT22;7658;51.456;7.622;2023-02-08T02:36:27;-3.50;99.90
15115;DHT22;7658;51.456;7.622;2023-02-08T02:41:53;-3.60;99.90
15115;DHT22;7658;51.456;7.622;2023-02-08T02:47:44;-3.70;99.90
15115;DHT22;7658;51.456;7.622;2023-02-08T02:52:47;-3.70;99.90
15115;DHT22;7658;51.456;7.622;2023-02-08T02:55:19;-3.70;99.90
15115;DHT22;7658;51.456;7.622;2023-02-08T02:57:47;-3.70;99.90
15115;DHT22;7658;51.456;7.622;2023-02-08T03:00:20;-3.70;99.90
15115;DHT22;7658;51.456;7.622;2023-02-08T03:02:47;-3.70;99.90
15115;DHT22;7658;51.456;7.622;2023-02-08T03:05:13;-3.70;99.90
15115;DHT22;7658;51.456;7.622;2023-02-08T03:16:25;-3.40;99.90
15115;DHT22;7658;51.456;7.622;2023-02-08T03:21:49;-3.50;99.90
15115;DHT22;7658;51.456;7.622;2023-02-08T03:27:43;-3.40;99.90
15115;DHT22;7658;51.456;7.622;2023-02-08T03:33:11;-3.40;99.90
15115;DHT22;7658;51.456;7.622;2023-02-08T03:38:35;-3.40;99.90
15115;DHT22;7658;51.456;7.622;2023-02-08T03:41:05;-3.30;99.90
15115;DHT22;7658;51.456;7.622;2023-02-08T03:43:42;-3.30;99.90
15115;DHT22;7658;51.456;7.622;2023-02-08T03:46:27;-3.40;99.90
15115;DHT22;7658;51.456;7.622;2023-02-08T03:48:58;-3.40;99.90
15115;DHT22;7658;51.456;7.622;2023-02-08T03:51:28;-3.40;99.90
15115;DHT22;7658;51.456;7.622;2023-02-08T03:53:56;-3.50;99.90
15115;DHT22;7658;51.456;7.622;2023-02-08T03:56:43;-3.60;99.90
15115;DHT22;7658;51.456;7.622;2023-02-08T03:59:38;-3.60;99.90
15115;DHT22;7658;51.456;7.622;2023-02-08T04:02:06;-3.70;99.90
15115;DHT22;7658;51.456;7.622;2023-02-08T04:04:41;-3.70;99.90
15115;DHT22;7658;51.456;7.622;2023-02-08T04:07:08;-3.70;99.90
15115;DHT22;7658;51.456;7.622;2023-02-08T04:09:34;-3.70;99.90
15115;DHT22;7658;51.456;7.622;2023-02-08T04:11:59;-3.70;99.90
15115;DHT22;7658;51.456;7.622;2023-02-08T04:14:25;-3.70;99.90
15115;DHT22;7658;51.456;7.622;2023-02-08T04:16:51;-3.80;99.90
15115;DHT22;7658;51.456;7.622;2023-02-08T04:19:17;-3.80;99.90
15115;DHT22;7658;51.456;7.622;2023-02-08T04:21:42;-3.80;99.90
15115;DHT22;7658;51.456;7.622;2023-02-08T04:24:08;-3.90;99.90
15115;DHT22;7658;51.456;7.622;2023-02-08T04:26:34;-3.90;99.90
15115;DHT22;7658;51.456;7.622;2023-02-08T04:29:00;-4.00;99.90
15115;DHT22;7658;51.456;7.622;2023-02-08T04:31:26;-4.00;99.90
15115;DHT22;7658;51.456;7.622;2023-02-08T04:33:52;-4.10;99.90
15115;DHT22;7658;51.456;7.622;2023-02-08T04:36:18;-4.20;99.90
15115;DHT22;7658;51.456;7.622;2023-02-08T04:38:44;-4.30;99.90
15115;DHT22;7658;51.456;7.622;2023-02-08T04:41:09;-4.20;99.90
15115;DHT22;7658;51.456;7.622;2023-02-08T04:43:35;-4.20;99.90
15115;DHT22;7658;51.456;7.622;2023-02-08T04:46:01;-4.10;99.90
15115;DHT22;7658;51.456;7.622;2023-02-08T04:48:27;-4.10;99.90
15115;DHT22;7658;51.456;7.622;2023-02-08T04:50:57;-4.10;99.90
15115;DHT22;7658;51.456;7.622;2023-02-08T04:53:24;-4.10;99.90
15115;DHT22;7658;51.456;7.622;2023-02-08T04:55:50;-4.10;99.90
15115;DHT22;7658;51.456;7.622;2023-02-08T04:58:18;-4.10;99.90
15115;DHT22;7658;51.456;7.622;2023-02-08T05:00:44;-4.10;99.90
15115;DHT22;7658;51.456;7.622;2023-02-08T05:03:10;-4.10;99.90
15115;DHT22;7658;51.456;7.622;2023-02-08T05:05:36;-4.10;99.90
15115;DHT22;7658;51.456;7.622;2023-02-08T05:08:02;-4.00;99.90
15115;DHT22;7658;51.456;7.622;2023-02-08T05:10:28;-4.10;99.90
15115;DHT22;7658;51.456;7.622;2023-02-08T05:12:53;-4.20;99.90
15115;DHT22;7658;51.456;7.622;2023-02-08T05:15:19;-4.20;99.90
15115;DHT22;7658;51.456;7.622;2023-02-08T05:17:45;-4.30;99.90
15115;DHT22;7658;51.456;7.622;2023-02-08T05:20:11;-4.30;99.90
15115;DHT22;7658;51.456;7.622;2023-02-08T05:22:37;-4.30;99.90
15115;DHT22;7658;51.456;7.622;2023-02-08T05:25:03;-4.20;99.90
15115;DHT22;7658;51.456;7.622;2023-02-08T05:27:29;-4.20;99.90
15115;DHT22;7658;51.456;7.622;2023-02-08T05:29:55;-4.10;99.90
15115;DHT22;7658;51.456;7.622;2023-02-08T05:32:21;-4.20;99.90
15115;DHT22;7658;51.456;7.622;2023-02-08T05:34:46;-4.20;99.90
15115;DHT22;7658;51.456;7.622;2023-02-08T05:37:12;-4.30;99.90
15115;DHT22;7658;51.456;7.622;2023-02-08T05:39:39;-4.40;99.90
15115;DHT22;7658;51.456;7.622;2023-02-08T05:42:05;-4.40;99.90
15115;DHT22;7658;51.456;7.622;2023-02-08T05:44:31;-4.40;99.90
15115;DHT22;7658;51.456;7.622;2023-02-08T05:46:56;-4.50;99.90
15115;DHT22;7658;51.456;7.622;2023-02-08T05:49:22;-4.50;99.90
15115;DHT22;7658;51.456;7.622;2023-02-08T05:51:48;-4.40;99.90
15115;DHT22;7658;51.456;7.622;2023-02-08T05:54:15;-4.50;99.90
15115;DHT22;7658;51.456;7.622;2023-02-08T05:56:41;-4.50;99.90
15115;DHT22;7658;51.456;7.622;2023-02-08T05:59:08;-4.50;99.90
15115;DHT22;7658;51.456;7.622;2023-02-08T06:01:34;-4.50;99.90
15115;DHT22;7658;51.456;7.622;2023-02-08T06:04:00;-4.40;99.90
15115;DHT22;7658;51.456;7.622;2023-02-08T06:06:26;-4.40;99.90
15115;DHT22;7658;51.456;7.622;2023-02-08T06:08:53;-4.40;99.90
15115;DHT22;7658;51.456;7.622;2023-02-08T06:11:18;-4.40;99.90
15115;DHT22;7658;51.456;7.622;2023-02-08T06:13:45;-4.40;99.90
15115;DHT22;7658;51.456;7.622;2023-02-08T06:16:12;-4.40;99.90
15115;DHT22;7658;51.456;7.622;2023-02-08T06:18:38;-4.40;99.90
15115;DHT22;7658;51.456;7.622;2023-02-08T06:21:04;-4.40;99.90
15115;DHT22;7658;51.456;7.622;2023-02-08T06:23:30;-4.40;99.90
15115;DHT22;7658;51.456;7.622;2023-02-08T06:25:56;-4.40;99.90
15115;DHT22;7658;51.456;7.622;2023-02-08T06:28:21;-4.40;99.90
15115;DHT22;7658;51.456;7.622;2023-02-08T06:30:51;-4.40;99.90
15115;DHT22;7658;51.456;7.622;2023-02-08T06:33:17;-4.40;99.90
15115;DHT22;7658;51.456;7.622;2023-02-08T06:35:50;-4.40;99.90
15115;DHT22;7658;51.456;7.622;2023-02-08T06:38:16;-4.40;99.90
15115;DHT22;7658;51.456;7.622;2023-02-08T06:40:42;-4.30;99.90
15115;DHT22;7658;51.456;7.622;2023-02-08T06:43:07;-4.30;99.90
15115;DHT22;7658;51.456;7.622;2023-02-08T06:45:33;-4.40;99.90
15115;DHT22;7658;51.456;7.622;2023-02-08T06:47:59;-4.40;99.90
15115;DHT22;7658;51.456;7.622;2023-02-08T06:50:25;-4.40;99.90
15115;DHT22;7658;51.456;7.622;2023-02-08T06:52:51;-4.40;99.90
15115;DHT22;7658;51.456;7.622;2023-02-08T06:55:16;-4.40;99.90
15115;DHT22;7658;51.456;7.622;2023-02-08T06:57:42;-4.40;99.90
15115;DHT22;7658;51.456;7.622;2023-02-08T07:00:09;-4.40;99.90
15115;DHT22;7658;51.456;7.622;2023-02-08T07:02:35;-4.40;99.90
15115;DHT22;7658;51.456;7.622;2023-02-08T07:05:00;-4.40;99.90
15115;DHT22;7658;51.456;7.622;2023-02-08T07:07:26;-4.40;99.90
15115;DHT22;7658;51.456;7.622;2023-02-08T07:09:52;-4.40;99.90
15115;DHT22;7658;51.456;7.622;2023-02-08T07:12:19;-4.40;99.90
15115;DHT22;7658;51.456;7.622;2023-02-08T07:14:44;-4.30;99.90
15115;DHT22;7658;51.456;7.622;2023-02-08T07:17:11;-4.30;99.90
15115;DHT22;7658;51.456;7.622;2023-02-08T07:19:37;-4.30;99.90
15115;DHT22;7658;51.456;7.622;2023-02-08T07:22:03;-4.40;99.90
15115;DHT22;7658;51.456;7.622;2023-02-08T07:24:37;-4.40;99.90
15115;DHT22;7658;51.456;7.622;2023-02-08T07:27:05;-4.40;99.90
15115;DHT22;7658;51.456;7.622;2023-02-08T07:29:31;-4.40;99.90
15115;DHT22;7658;51.456;7.622;2023-02-08T07:31:59;-4.40;99.90
15115;DHT22;7658;51.456;7.622;2023-02-08T07:34:27;-4.30;99.90
15115;DHT22;7658;51.456;7.622;2023-02-08T07:36:53;-4.20;99.90
15115;DHT22;7658;51.456;7.622;2023-02-08T07:39:19;-4.20;99.90
15115;DHT22;7658;51.456;7.622;2023-02-08T07:41:44;-4.10;99.90
15115;DHT22;7658;51.456;7.622;2023-02-08T07:44:10;-4.10;99.90
15115;DHT22;7658;51.456;7.622;2023-02-08T07:46:36;-4.00;99.90
15115;DHT22;7658;51.456;7.622;2023-02-08T07:49:01;-3.70;99.90
15115;DHT22;7658;51.456;7.622;2023-02-08T07:51:27;-3.50;99.90
15115;DHT22;7658;51.456;7.622;2023-02-08T07:53:53;-3.30;99.90
15115;DHT22;7658;51.456;7.622;2023-02-08T07:56:19;-3.10;99.90
15115;DHT22;7658;51.456;7.622;2023-02-08T07:58:44;-3.10;99.90
15115;DHT22;7658;51.456;7.622;2023-02-08T08:01:10;-3.10;99.90
15115;DHT22;7658;51.456;7.622;2023-02-08T08:03:36;-3.10;99.90
15115;DHT22;7658;51.456;7.622;2023-02-08T08:06:02;-3.10;99.90
15115;DHT22;7658;51.456;7.622;2023-02-08T08:08:27;-3.00;99.90
15115;DHT22;7658;51.456;7.622;2023-02-08T08:10:53;-3.00;99.90
15115;DHT22;7658;51.456;7.622;2023-02-08T08:13:19;-3.00;99.90
15115;DHT22;7658;51.456;7.622;2023-02-08T08:15:46;-3.00;99.90
15115;DHT22;7658;51.456;7.622;2023-02-08T08:18:11;-3.00;99.90
15115;DHT22;7658;51.456;7.622;2023-02-08T08:20:37;-3.00;99.90
15115;DHT22;7658;51.456;7.622;2023-02-08T08:23:03;-3.00;99.90
15115;DHT22;7658;51.456;7.622;2023-02-08T08:25:29;-3.00;99.90
15115;DHT22;7658;51.456;7.622;2023-02-08T08:27:55;-3.00;99.90
15115;DHT22;7658;51.456;7.622;2023-02-08T08:30:21;-2.90;99.90
15115;DHT22;7658;51.456;7.622;2023-02-08T08:32:46;-2.90;99.90
15115;DHT22;7658;51.456;7.622;2023-02-08T08:35:13;-2.80;99.90
15115;DHT22;7658;51.456;7.622;2023-02-08T08:37:38;-2.70;99.90
15115;DHT22;7658;51.456;7.622;2023-02-08T08:40:06;-2.70;99.90
15115;DHT22;7658;51.456;7.622;2023-02-08T08:42:33;-2.60;99.90
15115;DHT22;7658;51.456;7.622;2023-02-08T08:44:59;-2.50;99.90
15115;DHT22;7658;51.456;7.622;2023-02-08T08:47:24;-2.50;99.90
15115;DHT22;7658;51.456;7.622;2023-02-08T08:49:50;-2.40;99.90
15115;DHT22;7658;51.456;7.622;2023-02-08T08:52:16;-2.30;99.90
15115;DHT22;7658;51.456;7.622;2023-02-08T08:54:42;-2.20;99.90
15115;DHT22;7658;51.456;7.622;2023-02-08T08:57:07;-2.10;99.90
15115;DHT22;7658;51.456;7.622;2023-02-08T08:59:33;-2.00;99.90
15115;DHT22;7658;51.456;7.622;2023-02-08T09:01:59;-1.90;99.90
15115;DHT22;7658;51.456;7.622;2023-02-08T09:04:25;-1.80;99.90
15115;DHT22;7658;51.456;7.622;2023-02-08T09:06:52;-1.70;99.90
15115;DHT22;7658;51.456;7.622;2023-02-08T09:09:19;-1.60;99.90
15115;DHT22;7658;51.456;7.622;2023-02-08T09:11:45;-1.50;99.90
15115;DHT22;7658;51.456;7.622;2023-02-08T09:14:11;-1.40;99.90
15115;DHT22;7658;51.456;7.622;2023-02-08T09:16:42;-1.20;99.90
15115;DHT22;7658;51.456;7.622;2023-02-08T09:19:12;-1.10;99.90
15115;DHT22;7658;51.456;7.622;2023-02-08T09:21:39;-0.90;99.90
15115;DHT22;7658;51.456;7.622;2023-02-08T09:24:05;-0.80;99.90
15115;DHT22;7658;51.456;7.622;2023-02-08T09:26:31;-0.70;99.90
15115;DHT22;7658;51.456;7.622;2023-02-08T09:28:57;-0.60;99.90
15115;DHT22;7658;51.456;7.622;2023-02-08T09:31:30;-0.50;99.90
15115;DHT22;7658;51.456;7.622;2023-02-08T09:33:58;-0.30;99.90
15115;DHT22;7658;51.456;7.622;2023-02-08T09:36:26;-0.20;99.90
15115;DHT22;7658;51.456;7.622;2023-02-08T09:38:57;0.00;99.90
15115;DHT22;7658;51.456;7.622;2023-02-08T09:49:29;0.60;99.90
15115;DHT22;7658;51.456;7.622;2023-02-08T09:52:00;0.80;99.90
15115;DHT22;7658;51.456;7.622;2023-02-08T09:54:36;0.90;99.90
15115;DHT22;7658;51.456;7.622;2023-02-08T09:57:11;1.00;99.90
15115;DHT22;7658;51.456;7.622;2023-02-08T09:59:39;1.10;99.90
15115;DHT22;7658;51.456;7.622;2023-02-08T10:02:27;1.30;99.90
15115;DHT22;7658;51.456;7.622;2023-02-08T10:05:05;1.40;99.90
15115;DHT22;7658;51.456;7.622;2023-02-08T10:07:35;1.50;99.90
15115;DHT22;7658;51.456;7.622;2023-02-08T10:10:04;1.60;99.90
15115;DHT22;7658;51.456;7.622;2023-02-08T10:12:58;1.70;99.90
15115;DHT22;7658;51.456;7.622;2023-02-08T10:18:08;1.80;99.90
15115;DHT22;7658;51.456;7.622;2023-02-08T10:21:06;1.90;99.90
15115;DHT22;7658;51.456;7.622;2023-02-08T10:35:12;2.40;99.90
15115;DHT22;7658;51.456;7.622;2023-02-08T10:37:41;2.50;99.90
15115;DHT22;7658;51.456;7.622;2023-02-08T10:42:50;2.70;99.90
15115;DHT22;7658;51.456;7.622;2023-02-08T10:45:29;2.80;99.90
15115;DHT22;7658;51.456;7.622;2023-02-08T10:48:03;3.00;99.90
15115;DHT22;7658;51.456;7.622;2023-02-08T10:50:33;3.20;99.90
15115;DHT22;7658;51.456;7.622;2023-02-08T10:53:00;3.30;99.90
15115;DHT22;7658;51.456;7.622;2023-02-08T10:55:26;3.50;99.90
15115;DHT22;7658;51.456;7.622;2023-02-08T10:57:57;3.70;99.90
15115;DHT22;7658;51.456;7.622;2023-02-08T11:00:26;3.90;99.90
15115;DHT22;7658;51.456;7.622;2023-02-08T11:02:54;4.10;99.90
15115;DHT22;7658;51.456;7.622;2023-02-08T11:08:09;4.50;99.90
15115;DHT22;7658;51.456;7.622;2023-02-08T11:10:36;4.80;99.90
15115;DHT22;7658;51.456;7.622;2023-02-08T11:15:49;5.30;99.90
15115;DHT22;7658;51.456;7.622;2023-02-08T11:18:33;5.50;99.90
15115;DHT22;7658;51.456;7.622;2023-02-08T11:21:05;5.70;99.90
15115;DHT22;7658;51.456;7.622;2023-02-08T11:23:38;5.90;99.90
15115;DHT22;7658;51.456;7.622;2023-02-08T11:26:18;6.20;99.90
15115;DHT22;7658;51.456;7.622;2023-02-08T11:31:37;6.50;99.90
15115;DHT22;7658;51.456;7.622;2023-02-08T11:34:12;6.80;99.90
15115;DHT22;7658;51.456;7.622;2023-02-08T11:36:45;7.00;99.90
15115;DHT22;7658;51.456;7.622;2023-02-08T11:39:16;7.00;99.90
15115;DHT22;7658;51.456;7.622;2023-02-08T11:41:44;7.20;99.90
15115;DHT22;7658;51.456;7.622;2023-02-08T11:44:20;7.40;99.90
15115;DHT22;7658;51.456;7.622;2023-02-08T11:46:47;7.70;99.90
15115;DHT22;7658;51.456;7.622;2023-02-08T11:49:27;7.80;99.90
15115;DHT22;7658;51.456;7.622;2023-02-08T11:51:54;8.00;99.90
15115;DHT22;7658;51.456;7.622;2023-02-08T11:54:41;8.20;99.90
15115;DHT22;7658;51.456;7.622;2023-02-08T11:57:19;8.40;99.90
15115;DHT22;7658;51.456;7.622;2023-02-08T11:59:46;8.60;99.90
15115;DHT22;7658;51.456;7.622;2023-02-08T12:02:37;8.60;99.90
15115;DHT22;7658;51.456;7.622;2023-02-08T12:05:09;8.40;99.70
15115;DHT22;7658;51.456;7.622;2023-02-08T12:08:06;8.50;99.90
15115;DHT22;7658;51.456;7.622;2023-02-08T12:22:15;9.30;97.40
15115;DHT22;7658;51.456;7.622;2023-02-08T12:25:13;9.50;98.80
15115;DHT22;7658;51.456;7.622;2023-02-08T12:33:35;9.70;92.30
15115;DHT22;7658;51.456;7.622;2023-02-08T12:36:19;9.90;95.30
15115;DHT22;7658;51.456;7.622;2023-02-08T12:42:37;10.00;91.70
15115;DHT22;7658;51.456;7.622;2023-02-08T12:53:30;10.60;95.70
15115;DHT22;7658;51.456;7.622;2023-02-08T12:56:02;10.60;93.80
15115;DHT22;7658;51.456;7.622;2023-02-08T12:58:39;10.50;91.20
15115;DHT22;7658;51.456;7.622;2023-02-08T13:03:46;10.50;94.00
15115;DHT22;7658;51.456;7.622;2023-02-08T13:06:21;10.70;94.80
15115;DHT22;7658;51.456;7.622;2023-02-08T13:09:04;10.70;95.10
15115;DHT22;7658;51.456;7.622;2023-02-08T13:14:27;10.20;94.40
15115;DHT22;7658;51.456;7.622;2023-02-08T13:17:02;10.30;95.00
15115;DHT22;7658;51.456;7.622;2023-02-08T13:19:49;10.30;95.90
15115;DHT22;7658;51.456;7.622;2023-02-08T13:22:16;10.20;94.90
15115;DHT22;7658;51.456;7.622;2023-02-08T13:24:44;10.40;96.40
15115;DHT22;7658;51.456;7.622;2023-02-08T13:27:19;10.20;94.90
15115;DHT22;7658;51.456;7.622;2023-02-08T13:29:47;10.00;94.50
15115;DHT22;7658;51.456;7.622;2023-02-08T13:32:28;10.00;95.80
15115;DHT22;7658;51.456;7.622;2023-02-08T13:38:34;10.00;95.60
15115;DHT22;7658;51.456;7.622;2023-02-08T13:40:36;9.70;94.50
15115;DHT22;7658;51.456;7.622;2023-02-08T13:43:08;9.50;95.80
15115;DHT22;7658;51.456;7.622;2023-02-08T13:45:43;9.70;96.40
15115;DHT22;7658;51.456;7.622;2023-02-08T13:48:11;9.50;94.30
15115;DHT22;7658;51.456;7.622;2023-02-08T13:50:51;9.40;94.90
15115;DHT22;7658;51.456;7.622;2023-02-08T13:54:04;9.40;96.80
15115;DHT22;7658;51.456;7.622;2023-02-08T13:56:09;9.50;96.60
15115;DHT22;7658;51.456;7.622;2023-02-08T14:01:18;9.50;96.60
15115;DHT22;7658;51.456;7.622;2023-02-08T14:06:35;9.50;96.30
15115;DHT22;7658;51.456;7.622;2023-02-08T14:09:08;9.40;95.80
15115;DHT22;7658;51.456;7.622;2023-02-08T14:11:45;9.30;96.40
15115;DHT22;7658;51.456;7.622;2023-02-08T14:14:26;9.30;96.40
15115;DHT22;7658;51.456;7.622;2023-02-08T14:17:27;9.20;96.80
15115;DHT22;7658;51.456;7.622;2023-02-08T14:19:59;9.20;97.70
15115;DHT22;7658;51.456;7.622;2023-02-08T14:22:29;8.80;96.70
15115;DHT22;7658;51.456;7.622;2023-02-08T14:25:02;8.70;96.90
15115;DHT22;7658;51.456;7.622;2023-02-08T14:32:30;8.40;97.30
15115;DHT22;7658;51.456;7.622;2023-02-08T14:35:15;8.30;97.70
15115;DHT22;7658;51.456;7.622;2023-02-08T14:37:45;8.20;97.60
15115;DHT22;7658;51.456;7.622;2023-02-08T14:45:33;8.00;97.80
15115;DHT22;7658;51.456;7.622;2023-02-08T14:50:34;7.80;99.10
15115;DHT22;7658;51.456;7.622;2023-02-08T14:55:48;7.70;99.40
15115;DHT22;7658;51.456;7.622;2023-02-08T14:58:23;7.50;99.70
15115;DHT22;7658;51.456;7.622;2023-02-08T15:00:51;7.40;99.40
15115;DHT22;7658;51.456;7.622;2023-02-08T15:03:18;7.30;99.40
15115;DHT22;7658;51.456;7.622;2023-02-08T15:08:33;7.00;99.90
15115;DHT22;7658;51.456;7.622;2023-02-08T15:10:59;6.80;98.80
15115;DHT22;7658;51.456;7.622;2023-02-08T15:13:25;6.70;98.80
15115;DHT22;7658;51.456;7.622;2023-02-08T15:15:56;6.60;98.90
15115;DHT22;7658;51.456;7.622;2023-02-08T15:18:28;6.60;98.90
15115;DHT22;7658;51.456;7.622;2023-02-08T15:21:13;6.50;99.70
15115;DHT22;7658;51.456;7.622;2023-02-08T15:23:40;6.40;99.90
15115;DHT22;7658;51.456;7.622;2023-02-08T15:26:20;6.30;99.90
15115;DHT22;7658;51.456;7.622;2023-02-08T15:28:46;6.20;99.90
15115;DHT22;7658;51.456;7.622;2023-02-08T15:31:17;6.10;99.90
15115;DHT22;7658;51.456;7.622;2023-02-08T15:33:44;6.00;99.90
15115;DHT22;7658;51.456;7.622;2023-02-08T15:36:33;5.90;99.90
15115;DHT22;7658;51.456;7.622;2023-02-08T15:39:03;5.80;99.90
15115;DHT22;7658;51.456;7.622;2023-02-08T15:41:33;5.70;99.90
15115;DHT22;7658;51.456;7.622;2023-02-08T15:44:04;5.60;99.90
15115;DHT22;7658;51.456;7.622;2023-02-08T15:46:37;5.50;99.90
15115;DHT22;7658;51.456;7.622;2023-02-08T15:49:03;5.30;99.90
15115;DHT22;7658;51.456;7.622;2023-02-08T15:51:29;5.20;99.90
15115;DHT22;7658;51.456;7.622;2023-02-08T15:53:55;5.10;99.90
15115;DHT22;7658;51.456;7.622;2023-02-08T15:56:28;5.00;99.90
15115;DHT22;7658;51.456;7.622;2023-02-08T15:58:57;4.90;99.90
15115;DHT22;7658;51.456;7.622;2023-02-08T16:01:24;4.80;99.90
15115;DHT22;7658;51.456;7.622;2023-02-08T16:03:59;4.70;99.90
15115;DHT22;7658;51.456;7.622;2023-02-08T16:06:36;4.60;99.90
15115;DHT22;7658;51.456;7.622;2023-02-08T16:09:03;4.40;99.90
15115;DHT22;7658;51.456;7.622;2023-02-08T16:11:31;4.30;99.90
15115;DHT22;7658;51.456;7.622;2023-02-08T16:13:59;4.20;99.90
15115;DHT22;7658;51.456;7.622;2023-02-08T16:16:41;4.20;99.90
15115;DHT22;7658;51.456;7.622;2023-02-08T16:19:26;4.10;99.90
15115;DHT22;7658;51.456;7.622;2023-02-08T16:22:22;4.00;99.90
15115;DHT22;7658;51.456;7.622;2023-02-08T16:24:50;3.90;99.90
15115;DHT22;7658;51.456;7.622;2023-02-08T16:27:29;3.70;99.90
15115;DHT22;7658;51.456;7.622;2023-02-08T16:29:55;3.70;99.90
15115;DHT22;7658;51.456;7.622;2023-02-08T16:32:31;3.60;99.90
15115;DHT22;7658;51.456;7.622;2023-02-08T16:34:58;3.50;99.90
15115;DHT22;7658;51.456;7.622;2023-02-08T16:37:31;3.40;99.90
15115;DHT22;7658;51.456;7.622;2023-02-08T16:42:36;3.20;99.90
15115;DHT22;7658;51.456;7.622;2023-02-08T16:47:37;3.00;99.90
15115;DHT22;7658;51.456;7.622;2023-02-08T16:50:09;2.90;99.90
15115;DHT22;7658;51.456;7.622;2023-02-08T16:52:35;2.90;99.90
15115;DHT22;7658;51.456;7.622;2023-02-08T16:55:01;2.70;99.90
15115;DHT22;7658;51.456;7.622;2023-02-08T16:57:48;2.60;99.90
15115;DHT22;7658;51.456;7.622;2023-02-08T17:00:18;2.60;99.90
15115;DHT22;7658;51.456;7.622;2023-02-08T17:02:44;2.50;99.90
15115;DHT22;7658;51.456;7.622;2023-02-08T17:05:10;2.40;99.90
15115;DHT22;7658;51.456;7.622;2023-02-08T17:07:36;2.40;99.90
15115;DHT22;7658;51.456;7.622;2023-02-08T17:10:07;2.30;99.90
15115;DHT22;7658;51.456;7.622;2023-02-08T17:12:38;2.20;99.90
15115;DHT22;7658;51.456;7.622;2023-02-08T17:15:05;2.20;99.90
15115;DHT22;7658;51.456;7.622;2023-02-08T17:17:30;2.10;99.90
15115;DHT22;7658;51.456;7.622;2023-02-08T17:19:56;2.00;99.90
15115;DHT22;7658;51.456;7.622;2023-02-08T17:22:22;1.90;99.90
15115;DHT22;7658;51.456;7.622;2023-02-08T17:24:48;1.90;99.90
15115;DHT22;7658;51.456;7.622;2023-02-08T17:27:13;1.80;99.90
15115;DHT22;7658;51.456;7.622;2023-02-08T17:29:39;1.70;99.90
15115;DHT22;7658;51.456;7.622;2023-02-08T17:32:06;1.70;99.90
15115;DHT22;7658;51.456;7.622;2023-02-08T17:34:32;1.70;99.90
15115;DHT22;7658;51.456;7.622;2023-02-08T17:36:57;1.60;99.90
15115;DHT22;7658;51.456;7.622;2023-02-08T17:39:23;1.60;99.90
15115;DHT22;7658;51.456;7.622;2023-02-08T17:41:49;1.60;99.90
15115;DHT22;7658;51.456;7.622;2023-02-08T17:44:14;1.50;99.90
15115;DHT22;7658;51.456;7.622;2023-02-08T17:46:41;1.50;99.90
15115;DHT22;7658;51.456;7.622;2023-02-08T17:49:06;1.50;99.90
15115;DHT22;7658;51.456;7.622;2023-02-08T17:51:32;1.40;99.90
15115;DHT22;7658;51.456;7.622;2023-02-08T17:54:01;1.30;99.90
15115;DHT22;7658;51.456;7.622;2023-02-08T17:56:29;1.30;99.90
15115;DHT22;7658;51.456;7.622;2023-02-08T17:59:00;1.20;99.90
15115;DHT22;7658;51.456;7.622;2023-02-08T18:01:28;1.10;99.90
15115;DHT22;7658;51.456;7.622;2023-02-08T18:03:54;0.80;99.90
15115;DHT22;7658;51.456;7.622;2023-02-08T18:06:21;0.70;99.90
15115;DHT22;7658;51.456;7.622;2023-02-08T18:08:49;0.60;99.90
15115;DHT22;7658;51.456;7.622;2023-02-08T18:11:17;0.50;99.90
15115;DHT22;7658;51.456;7.622;2023-02-08T18:13:46;0.40;99.90
15115;DHT22;7658;51.456;7.622;2023-02-08T18:16:14;0.50;99.90
15115;DHT22;7658;51.456;7.622;2023-02-08T18:18:41;0.50;99.90
15115;DHT22;7658;51.456;7.622;2023-02-08T18:21:14;0.50;99.90
15115;DHT22;7658;51.456;7.622;2023-02-08T18:23:41;0.50;99.90
15115;DHT22;7658;51.456;7.622;2023-02-08T18:26:09;0.50;99.90